Time;durP1;ratioP1;P1;durP2;ratioP2;P2;SDS_P1;SDS_P2;PMS_P1;PMS_P2;Temp;Humidity;BMP_temperature;BMP_pressure;BME280_temperature;BME280_humidity;BME280_pressure;Samples;Min_cycle;Max_cycle;Signal;HPM_P1;HPM_P2
2021/12/19 00:09:42;;;;;;;;;;;;;;;;;;4880159;29;20039;-79
2021/12/19 00:12:11;;;;;;;;;;;;;;;;;;4879111;29;20002;-79
2021/12/19 00:14:51;;;;;;;;;;;;;;;;;;;;;
2021/12/19 00:17:26;;;;;;;;;;;;;;;;;;4880270;29;19930;-79
2021/12/19 00:19:55;;;;;;;;;;;;;;;;;;4880112;29;20407;-79
2021/12/19 00:22:24;;;;;;;;;;;;;;;;;;4880444;29;20480;-79
2021/12/19 00:27:34;;;;;;;;;;;;;;;;;;4880508;29;19919;-78
2021/12/19 00:30:00;;;;;;;;;;;;;;;;;;4879736;29;20364;-79
2021/12/19 00:32:26;;;;;;;;;;;;;;;;;;4880190;29;19908;-79
2021/12/19 00:34:52;;;;;;;;;;;;;;;;;;4879619;29;19918;-79
2021/12/19 00:37:19;;;;;;;;;;;;;;;;;;4879083;29;19908;-79
2021/12/19 00:39:44;;;;;;;;;;;;;;;;;;4880015;29;19908;-79
2021/12/19 00:42:19;;;;;;;;;;;;;;;;;;4880093;29;19907;-79
2021/12/19 00:44:50;;;;;;;;;;;;;;;;;;4879466;29;19919;-78
2021/12/19 00:47:19;;;;;;;;;;;;;;;;;;4880233;29;20348;-79
2021/12/19 00:49:47;;;;;;;;;;;;;;;;;;4878268;29;19936;-79
2021/12/19 00:52:18;;;;;;;;;;;;;;;;;;4879818;29;19908;-79
2021/12/19 00:54:47;;;;;;;;;;;;;;;;;;4879636;29;19958;-79
2021/12/19 00:57:13;;;;;;;;;;;;;;;;;;4879452;29;19940;-79
2021/12/19 00:59:46;;;;;;;;;;;;;;;;;;4879459;29;19911;-79
2021/12/19 01:02:12;;;;;;;;;;;;;;;;;;4878354;29;19963;-79
2021/12/19 01:04:38;;;;;;;;;;;;;;;;;;4879850;29;19908;-79
2021/12/19 01:07:04;;;;;;;;;;;;;;;;;;4879503;29;19963;-79
2021/12/19 01:09:33;;;;;;;;;;;;;;;;;;4879513;29;20313;-79
2021/12/19 01:12:01;;;;;;;;;;;;;;;;;;4879336;29;19939;-79
2021/12/19 01:14:30;;;;;;;;;;;;;;;;;;4879398;29;20374;-79
2021/12/19 01:20:00;;;;;;;;;;;;;;;;;;4839746;29;19912;-79
2021/12/19 01:22:34;;;;;;;;;;;;;;;;;;4839462;29;20011;-79
2021/12/19 01:25:06;;;;;;;;;;;;;;;;;;4839369;29;19927;-79
2021/12/19 01:27:46;;;;;;;;;;;;;;;;;;;;;
2021/12/19 01:30:15;;;;;;;;;;;;;;;;;;4839736;29;19912;-79
2021/12/19 01:32:43;;;;;;;;;;;;;;;;;;4839773;29;19965;-79
2021/12/19 01:35:12;;;;;;;;;;;;;;;;;;4840168;29;19931;-79
2021/12/19 01:37:40;;;;;;;;;;;;;;;;;;4839990;29;20368;-79
2021/12/19 01:40:09;;;;;;;;;;;;;;;;;;4838599;29;19920;-79
2021/12/19 01:42:35;;;;;;;;;;;;;;;;;;4840041;29;19957;-79
2021/12/19 01:45:01;;;;;;;;;;;;;;;;;;4839603;29;20329;-79
2021/12/19 01:47:27;;;;;;;;;;;;;;;;;;4839771;29;19909;-79
2021/12/19 01:49:55;;;;;;;;;;;;;;;;;;4839856;29;19957;-79
2021/12/19 01:52:21;;;;;;;;;;;;;;;;;;4839188;29;20365;-79
2021/12/19 01:54:54;;;;;;;;;;;;;;;;;;4873355;29;19908;-79
2021/12/19 01:57:39;;;;;;;;;;;;;;;;;;;;;
2021/12/19 02:00:11;;;;;;;;;;;;;;;;;;4860370;29;19923;-79
2021/12/19 02:02:44;;;;;;;;;;;;;;;;;;4861370;29;19914;-79
2021/12/19 02:05:22;;;;;;;;;;;;;;;;;;4878532;29;20371;-79
2021/12/19 02:08:03;;;;;;;;;;;;;;;;;;4878386;29;19911;-79
2021/12/19 02:10:41;;;;;;;;;;;;;;;;;;4877559;29;19907;-79
2021/12/19 02:13:11;;;;;;;;;;;;;;;;;;4878064;29;19935;-79
2021/12/19 02:15:40;;;;;;;;;;;;;;;;;;4878688;29;19907;-79
2021/12/19 02:18:11;;;;;;;;;;;;;;;;;;4878409;29;19915;-79
2021/12/19 02:20:40;;;;;;;;;;;;;;;;;;4878628;29;20376;-79
2021/12/19 02:23:09;;;;;;;;;;;;;;;;;;4876764;29;20308;-79
2021/12/19 02:25:38;;;;;;;;;;;;;;;;;;4878711;29;19930;-79
2021/12/19 02:28:07;;;;;;;;;;;;;;;;;;4877250;29;19926;-79
2021/12/19 02:30:36;;;;;;;;;;;;;;;;;;4876894;29;20443;-79
2021/12/19 02:33:09;;;;;;;;;;;;;;;;;;4876554;29;19918;-79
2021/12/19 02:35:38;;;;;;;;;;;;;;;;;;4882349;29;19974;-79
2021/12/19 02:48:50;;;;;;;;;;;;;;;;;;4881061;29;20335;-79
2021/12/19 02:51:16;;;;;;;;;;;;;;;;;;4881822;29;20279;-79
2021/12/19 02:54:00;;;;;;;;;;;;;;;;;;4881579;29;20353;-79
2021/12/19 02:56:26;;;;;;;;;;;;;;;;;;4881437;29;19918;-79
2021/12/19 02:58:52;;;;;;;;;;;;;;;;;;4882066;29;19998;-79
2021/12/19 03:01:18;;;;;;;;;;;;;;;;;;4880289;29;20427;-79
2021/12/19 03:03:44;;;;;;;;;;;;;;;;;;4881960;29;20412;-79
2021/12/19 03:06:10;;;;;;;;;;;;;;;;;;4881639;29;19930;-79
2021/12/19 03:08:42;;;;;;;;;;;;;;;;;;4881746;29;19912;-79
2021/12/19 03:11:51;;;;;;;;;;;;;;;;;;4880386;29;19955;-79
2021/12/19 03:19:38;;;;;;;;;;;;;;;;;;4882178;29;19919;-79
2021/12/19 03:22:26;;;;;;;;;;;;;;;;;;;;;
2021/12/19 03:25:04;;;;;;;;;;;;;;;;;;4880425;29;19922;-79
2021/12/19 03:27:30;;;;;;;;;;;;;;;;;;4881133;29;19915;-79
2021/12/19 03:29:56;;;;;;;;;;;;;;;;;;4880572;29;19907;-78
2021/12/19 03:32:24;;;;;;;;;;;;;;;;;;4881082;29;19967;-79
2021/12/19 03:34:50;;;;;;;;;;;;;;;;;;4880419;29;20276;-79
2021/12/19 03:37:16;;;;;;;;;;;;;;;;;;4881070;29;19903;-79
2021/12/19 03:42:36;;;;;;;;;;;;;;;;;;4880040;29;19963;-79
2021/12/19 03:45:04;;;;;;;;;;;;;;;;;;4880100;29;20340;-79
2021/12/19 03:47:43;;;;;;;;;;;;;;;;;;;;;
2021/12/19 03:50:12;;;;;;;;;;;;;;;;;;4880900;29;20279;-79
2021/12/19 03:52:41;;;;;;;;;;;;;;;;;;4880738;29;19956;-79
2021/12/19 03:55:13;;;;;;;;;;;;;;;;;;4880590;29;19929;-79
2021/12/19 03:57:42;;;;;;;;;;;;;;;;;;4875739;29;19912;-79
2021/12/19 04:03:08;;;;;;;;;;;;;;;;;;4859875;29;19930;-79
2021/12/19 04:05:42;;;;;;;;;;;;;;;;;;4859961;29;19908;-79
2021/12/19 04:08:11;;;;;;;;;;;;;;;;;;4859528;29;19908;-79
2021/12/19 04:10:56;;;;;;;;;;;;;;;;;;4858987;29;20391;-79
2021/12/19 04:13:23;;;;;;;;;;;;;;;;;;4859525;29;20277;-79
2021/12/19 04:15:49;;;;;;;;;;;;;;;;;;4859714;29;19908;-79
2021/12/19 04:18:15;;;;;;;;;;;;;;;;;;4859492;29;19916;-79
2021/12/19 04:20:43;;;;;;;;;;;;;;;;;;4859636;29;19908;-79
2021/12/19 04:23:12;;;;;;;;;;;;;;;;;;4859161;29;19908;-79
2021/12/19 04:25:59;;;;;;;;;;;;;;;;;;4858954;29;19920;-79
2021/12/19 04:28:28;;;;;;;;;;;;;;;;;;4858987;29;19908;-79
2021/12/19 04:31:04;;;;;;;;;;;;;;;;;;4859464;29;19912;-78
2021/12/19 04:33:35;;;;;;;;;;;;;;;;;;4858757;29;19912;-79
2021/12/19 04:36:09;;;;;;;;;;;;;;;;;;4859579;29;19983;-80
2021/12/19 04:39:10;;;;;;;;;;;;;;;;;;4859011;29;20003;-79
2021/12/19 05:00:31;;;;;;;;;;;;;;;;;;4861549;29;19908;-78
2021/12/19 05:03:32;;;;;;;;;;;;;;;;;;4861339;29;20326;-79
2021/12/19 05:14:20;;;;;;;;;;;;;;;;;;4825159;29;20393;-79
2021/12/19 05:17:01;;;;;;;;;;;;;;;;;;4840235;29;20293;-79
2021/12/19 05:19:31;;;;;;;;;;;;;;;;;;4840018;29;19912;-79
2021/12/19 05:22:01;;;;;;;;;;;;;;;;;;4839955;29;19915;-79
2021/12/19 05:27:11;;;;;;;;;;;;;;;;;;4839698;29;19912;-79
2021/12/19 05:29:39;;;;;;;;;;;;;;;;;;4838296;29;19920;-79
2021/12/19 05:32:08;;;;;;;;;;;;;;;;;;4821948;29;19923;-79
2021/12/19 05:34:40;;;;;;;;;;;;;;;;;;4822001;29;19905;-79
2021/12/19 05:45:22;;;;;;;;;;;;;;;;;;4878873;29;19955;-79
2021/12/19 05:47:48;;;;;;;;;;;;;;;;;;4878757;29;19907;-79
2021/12/19 05:50:14;;;;;;;;;;;;;;;;;;4879051;29;19904;-78
2021/12/19 05:52:40;;;;;;;;;;;;;;;;;;4878561;29;19913;-79
2021/12/19 05:55:06;;;;;;;;;;;;;;;;;;4878784;29;20006;-79
2021/12/19 05:57:32;;;;;;;;;;;;;;;;;;4877739;29;19983;-79
2021/12/19 06:00:01;;;;;;;;;;;;;;;;;;4878700;29;19908;-79
2021/12/19 06:02:27;;;;;;;;;;;;;;;;;;4878831;29;19915;-79
2021/12/19 06:04:59;;;;;;;;;;;;;;;;;;4878312;29;20391;-79
2021/12/19 06:07:45;;;;;;;;;;;;;;;;;;4878667;29;20341;-79
2021/12/19 06:10:11;;;;;;;;;;;;;;;;;;4878328;29;19907;-79
2021/12/19 06:12:37;;;;;;;;;;;;;;;;;;4878227;29;19954;-79
2021/12/19 06:15:03;;;;;;;;;;;;;;;;;;4878910;29;19912;-79
2021/12/19 06:17:47;;;;;;;;;;;;;;;;;;4876637;29;19922;-79
2021/12/19 06:20:13;;;;;;;;;;;;;;;;;;4878428;29;19971;-80
2021/12/19 06:22:39;;;;;;;;;;;;;;;;;;4878273;29;19911;-79
2021/12/19 06:25:05;;;;;;;;;;;;;;;;;;4878608;29;20385;-79
2021/12/19 06:27:31;;;;;;;;;;;;;;;;;;4878639;29;19908;-79
2021/12/19 06:29:58;;;;;;;;;;;;;;;;;;4877814;29;19959;-79
2021/12/19 06:32:27;;;;;;;;;;;;;;;;;;4877237;29;19915;-80
2021/12/19 06:35:06;;;;;;;;;;;;;;;;;;4877985;29;19947;-79
2021/12/19 06:37:37;;;;;;;;;;;;;;;;;;4878447;29;19907;-79
2021/12/19 06:40:06;;;;;;;;;;;;;;;;;;4877075;29;19912;-79
2021/12/19 06:42:47;;;;;;;;;;;;;;;;;;4877631;29;19911;-80
2021/12/19 06:45:13;;;;;;;;;;;;;;;;;;4878464;29;19955;-80
2021/12/19 06:47:39;;;;;;;;;;;;;;;;;;4877190;29;19962;-80
2021/12/19 06:50:05;;;;;;;;;;;;;;;;;;4878098;29;19967;-79
2021/12/19 06:52:38;;;;;;;;;;;;;;;;;;4878322;29;19907;-79
2021/12/19 06:55:04;;;;;;;;;;;;;;;;;;4878256;29;19911;-79
2021/12/19 06:57:36;;;;;;;;;;;;;;;;;;4876330;29;19919;-79
2021/12/19 07:00:05;;;;;;;;;;;;;;;;;;4878079;29;19955;-80
2021/12/19 07:02:31;;;;;;;;;;;;;;;;;;4877222;29;19995;-79
2021/12/19 07:04:57;;;;;;;;;;;;;;;;;;4877930;29;19919;-79
2021/12/19 07:07:23;;;;;;;;;;;;;;;;;;4876925;29;19912;-79
2021/12/19 07:09:49;;;;;;;;;;;;;;;;;;4877799;29;19912;-79
2021/12/19 07:12:18;;;;;;;;;;;;;;;;;;4878300;29;19947;-79
2021/12/19 07:14:47;;;;;;;;;;;;;;;;;;4878484;29;19904;-79
2021/12/19 07:17:25;;;;;;;;;;;;;;;;;;4877746;29;19943;-79
2021/12/19 07:20:01;;;;;;;;;;;;;;;;;;4876740;29;20287;-78
2021/12/19 07:22:29;;;;;;;;;;;;;;;;;;4881672;29;19915;-78
2021/12/19 07:25:01;;;;;;;;;;;;;;;;;;4880461;29;19924;-79
2021/12/19 07:27:30;;;;;;;;;;;;;;;;;;4881346;29;19912;-79
2021/12/19 07:30:02;;;;;;;;;;;;;;;;;;4880961;29;19912;-78
2021/12/19 07:32:31;;;;;;;;;;;;;;;;;;4881204;29;19979;-79
2021/12/19 07:35:08;;;;;;;;;;;;;;;;;;4880116;29;19911;-79
2021/12/19 07:37:37;;;;;;;;;;;;;;;;;;4877747;29;19990;-80
2021/12/19 07:40:16;;;;;;;;;;;;;;;;;;4880881;29;19915;-79
2021/12/19 07:45:36;;;;;;;;;;;;;;;;;;4881069;29;19915;-79
2021/12/19 07:48:13;;;;;;;;;;;;;;;;;;4873602;29;19912;-79
2021/12/19 07:53:28;;;;;;;;;;;;;;;;;;4871561;29;20232;-79
2021/12/19 07:56:09;;;;;;;;;;;;;;;;;;4875784;29;19914;-79
2021/12/19 07:58:42;;;;;;;;;;;;;;;;;;4878431;29;20300;-79
2021/12/19 08:04:04;;;;;;;;;;;;;;;;;;4861827;29;19987;-79
2021/12/19 08:06:32;;;;;;;;;;;;;;;;;;4874405;29;19915;-80
2021/12/19 08:09:21;;;;;;;;;;;;;;;;;;5151738;23;20379;-79
2021/12/19 08:12:11;;;;;;;;;;;;;;;;;;4909672;29;19908;-79
2021/12/19 08:14:39;;;;;;;;;;;;;;;;;;4914087;29;19918;-79
2021/12/19 08:17:13;;;;;;;;;;;;;;;;;;4905983;29;19994;-79
2021/12/19 08:19:42;;;;;;;;;;;;;;;;;;4911123;29;20017;-79
2021/12/19 08:22:09;;;;;;;;;;;;;;;;;;4912007;29;20334;-79
2021/12/19 08:27:13;;;;;;;;;;;;;;;;;;4872523;29;19931;-79
2021/12/19 08:29:42;;;;;;;;;;;;;;;;;;4875351;29;19907;-79
2021/12/19 08:32:17;;;;;;;;;;;;;;;;;;4877100;29;19934;-80
2021/12/19 08:34:56;;;;;;;;;;;;;;;;;;;;;
2021/12/19 08:40:25;;;;;;;;;;;;;;;;;;;;;
2021/12/19 08:43:05;;;;;;;;;;;;;;;;;;4874055;29;19908;-79
2021/12/19 08:45:43;;;;;;;;;;;;;;;;;;4872186;24;20006;-79
2021/12/19 08:48:08;;;;;;;;;;;;;;;;;;4955282;23;19961;-79
2021/12/19 08:50:34;;;;;;;;;;;;;;;;;;4873598;29;20411;-76
2021/12/19 08:53:00;;;;;;;;;;;;;;;;;;4855013;29;19908;-77
2021/12/19 08:55:26;;;;;;;;;;;;;;;;;;4880416;29;19912;-76
2021/12/19 08:57:52;;;;;;;;;;;;;;;;;;4873762;29;19960;-79
2021/12/19 09:00:18;;;;;;;;;;;;;;;;;;4857636;29;20393;-77
2021/12/19 09:02:46;;;;;;;;;;;;;;;;;;4873612;29;19947;-77
2021/12/19 09:05:12;;;;;;;;;;;;;;;;;;4872213;29;20460;-77
2021/12/19 09:07:37;;;;;;;;;;;;;;;;;;4875038;29;19946;-78
2021/12/19 09:10:03;;;;;;;;;;;;;;;;;;4878459;29;20003;-78
2021/12/19 09:12:29;;;;;;;;;;;;;;;;;;4878275;29;20277;-79
2021/12/19 09:14:55;;;;;;;;;;;;;;;;;;4879434;29;19912;-78
2021/12/19 09:17:21;;;;;;;;;;;;;;;;;;4878153;29;19911;-79
2021/12/19 09:19:47;;;;;;;;;;;;;;;;;;4878483;29;19923;-80
2021/12/19 09:22:13;;;;;;;;;;;;;;;;;;4876870;29;19911;-77
2021/12/19 09:24:39;;;;;;;;;;;;;;;;;;4878268;29;19939;-77
2021/12/19 09:27:07;;;;;;;;;;;;;;;;;;4875585;29;19912;-76
2021/12/19 09:29:33;;;;;;;;;;;;;;;;;;4878669;29;19908;-76
2021/12/19 09:31:59;;;;;;;;;;;;;;;;;;4877032;29;20292;-78
2021/12/19 09:34:25;;;;;;;;;;;;;;;;;;4868805;29;20357;-77
2021/12/19 09:36:51;;;;;;;;;;;;;;;;;;4874431;29;19986;-77
2021/12/19 09:39:18;;;;;;;;;;;;;;;;;;4878755;29;19912;-76
2021/12/19 09:41:45;;;;;;;;;;;;;;;;;;4878737;29;19912;-77
2021/12/19 09:44:11;;;;;;;;;;;;;;;;;;4878812;29;20440;-77
2021/12/19 09:46:37;;;;;;;;;;;;;;;;;;4866871;29;20291;-78
2021/12/19 09:49:03;;;;;;;;;;;;;;;;;;4878234;29;20022;-77
2021/12/19 09:51:29;;;;;;;;;;;;;;;;;;4877595;29;19911;-76
2021/12/19 09:53:55;;;;;;;;;;;;;;;;;;4877804;29;19911;-76
2021/12/19 09:56:21;;;;;;;;;;;;;;;;;;4878010;29;19940;-76
2021/12/19 09:58:47;;;;;;;;;;;;;;;;;;4872971;29;19916;-77
2021/12/19 10:01:13;;;;;;;;;;;;;;;;;;4868522;29;19908;-77
2021/12/19 10:03:38;;;;;;;;;;;;;;;;;;4874731;29;19912;-76
2021/12/19 10:06:04;;;;;;;;;;;;;;;;;;4877859;29;19912;-76
2021/12/19 10:08:30;;;;;;;;;;;;;;;;;;4877500;29;19958;-76
2021/12/19 10:11:00;;;;;;;;;;;;;;;;;;4861619;29;20271;-76
2021/12/19 10:13:26;;;;;;;;;;;;;;;;;;4878193;29;20019;-76
2021/12/19 10:15:52;;;;;;;;;;;;;;;;;;4871796;29;20384;-76
2021/12/19 10:18:18;;;;;;;;;;;;;;;;;;4869549;29;19920;-76
2021/12/19 10:20:43;;;;;;;;;;;;;;;;;;4878042;29;19915;-76
2021/12/19 10:23:09;;;;;;;;;;;;;;;;;;4871168;29;19908;-76
2021/12/19 10:25:35;;;;;;;;;;;;;;;;;;4866065;29;20721;-76
2021/12/19 10:28:01;;;;;;;;;;;;;;;;;;4867995;29;19939;-77
2021/12/19 10:30:27;;;;;;;;;;;;;;;;;;4846287;29;20296;-76
2021/12/19 10:32:53;;;;;;;;;;;;;;;;;;4877520;29;19939;-76
2021/12/19 10:35:19;;;;;;;;;;;;;;;;;;4862289;29;19908;-76
2021/12/19 10:37:45;;;;;;;;;;;;;;;;;;4854090;29;20337;-76
2021/12/19 10:40:11;;;;;;;;;;;;;;;;;;4871284;29;19908;-76
2021/12/19 10:42:36;;;;;;;;;;;;;;;;;;4863494;29;19911;-76
2021/12/19 10:47:47;;;;;;;;;;;;;;;;;;4867891;29;19926;-76
2021/12/19 10:50:13;;;;;;;;;;;;;;;;;;4875597;29;20014;-77
2021/12/19 10:52:39;;;;;;;;;;;;;;;;;;4869667;29;19998;-76
2021/12/19 10:55:05;;;;;;;;;;;;;;;;;;4868217;29;19908;-76
2021/12/19 10:57:30;;;;;;;;;;;;;;;;;;4855536;29;19959;-76
2021/12/19 10:59:56;;;;;;;;;;;;;;;;;;4877743;29;19938;-77
2021/12/19 11:02:22;;;;;;;;;;;;;;;;;;4860027;29;20010;-74
2021/12/19 11:04:48;;;;;;;;;;;;;;;;;;4857964;29;19916;-76
2021/12/19 11:07:14;;;;;;;;;;;;;;;;;;4860382;29;19907;-76
2021/12/19 11:09:41;;;;;;;;;;;;;;;;;;4873006;29;19919;-86
2021/12/19 11:12:07;;;;;;;;;;;;;;;;;;4872218;29;20040;-79
2021/12/19 11:14:33;;;;;;;;;;;;;;;;;;4876045;29;19960;-83
2021/12/19 11:16:59;;;;;;;;;;;;;;;;;;4873641;29;19915;-83
2021/12/19 11:19:25;;;;;;;;;;;;;;;;;;4869161;29;20409;-83
2021/12/19 11:21:50;;;;;;;;;;;;;;;;;;4857439;29;20384;-77
2021/12/19 11:24:16;;;;;;;;;;;;;;;;;;4867199;29;19915;-79
2021/12/19 11:26:42;;;;;;;;;;;;;;;;;;4865573;29;19908;-77
2021/12/19 11:29:08;;;;;;;;;;;;;;;;;;4881458;29;20424;-77
2021/12/19 11:31:34;;;;;;;;;;;;;;;;;;4881048;29;19940;-76
2021/12/19 11:34:00;;;;;;;;;;;;;;;;;;4880625;29;20304;-76
2021/12/19 11:36:26;;;;;;;;;;;;;;;;;;4881969;29;19916;-76
2021/12/19 11:38:52;;;;;;;;;;;;;;;;;;4881681;29;19968;-77
2021/12/19 11:41:18;;;;;;;;;;;;;;;;;;4880595;29;19908;-76
2021/12/19 11:43:45;;;;;;;;;;;;;;;;;;4877537;29;20272;-75
2021/12/19 11:46:20;;;;;;;;;;;;;;;;;;4880455;29;19912;-76
2021/12/19 11:48:47;;;;;;;;;;;;;;;;;;4871316;29;19961;-76
2021/12/19 11:51:13;;;;;;;;;;;;;;;;;;4870866;29;20308;-76
2021/12/19 11:53:43;;;;;;;;;;;;;;;;;;4872209;29;19915;-80
2021/12/19 11:56:09;;;;;;;;;;;;;;;;;;4870152;29;19966;-78
2021/12/19 11:58:35;;;;;;;;;;;;;;;;;;4874055;29;19994;-79
2021/12/19 12:01:01;;;;;;;;;;;;;;;;;;4869828;29;19914;-78
2021/12/19 12:03:27;;;;;;;;;;;;;;;;;;4849585;29;19908;-78
2021/12/19 12:05:53;;;;;;;;;;;;;;;;;;4877579;29;20229;-78
2021/12/19 12:08:19;;;;;;;;;;;;;;;;;;4858576;29;19907;-79
2021/12/19 12:10:45;;;;;;;;;;;;;;;;;;4868298;29;20439;-79
2021/12/19 12:13:11;;;;;;;;;;;;;;;;;;4857214;29;20002;-76
2021/12/19 12:15:37;;;;;;;;;;;;;;;;;;4872881;29;19908;-79
2021/12/19 12:18:03;;;;;;;;;;;;;;;;;;4857573;29;19911;-82
2021/12/19 12:20:32;;;;;;;;;;;;;;;;;;4873002;29;19915;-77
2021/12/19 12:22:58;;;;;;;;;;;;;;;;;;4872022;29;19922;-77
2021/12/19 12:25:24;;;;;;;;;;;;;;;;;;4871979;29;20360;-82
2021/12/19 12:27:55;;;;;;;;;;;;;;;;;;4852002;29;19915;-76
2021/12/19 12:30:20;;;;;;;;;;;;;;;;;;4870751;29;19918;-77
2021/12/19 12:32:46;;;;;;;;;;;;;;;;;;4869908;29;20296;-76
2021/12/19 12:35:12;;;;;;;;;;;;;;;;;;4870202;29;19908;-76
2021/12/19 12:37:39;;;;;;;;;;;;;;;;;;4871164;29;19920;-76
2021/12/19 12:40:05;;;;;;;;;;;;;;;;;;4871840;29;19940;-76
2021/12/19 12:42:31;;;;;;;;;;;;;;;;;;4871132;29;20002;-76
2021/12/19 12:44:57;;;;;;;;;;;;;;;;;;4854797;29;19912;-75
2021/12/19 12:47:22;;;;;;;;;;;;;;;;;;4868733;29;19915;-76
2021/12/19 12:49:48;;;;;;;;;;;;;;;;;;4875843;29;19922;-77
2021/12/19 12:52:14;;;;;;;;;;;;;;;;;;4875683;29;20380;-76
2021/12/19 12:54:44;;;;;;;;;;;;;;;;;;4880146;29;19915;-77
2021/12/19 12:57:10;;;;;;;;;;;;;;;;;;4880659;29;20317;-77
2021/12/19 12:59:38;;;;;;;;;;;;;;;;;;4879600;29;19923;-77
2021/12/19 13:02:22;;;;;;;;;;;;;;;;;;4855260;29;21350;-77
2021/12/19 13:04:48;;;;;;;;;;;;;;;;;;4870720;29;19935;-77
2021/12/19 13:07:14;;;;;;;;;;;;;;;;;;4880226;29;19943;-76
2021/12/19 13:09:40;;;;;;;;;;;;;;;;;;4880106;29;20335;-76
2021/12/19 13:12:06;;;;;;;;;;;;;;;;;;4879581;29;19908;-76
2021/12/19 13:14:32;;;;;;;;;;;;;;;;;;4880014;29;19942;-77
2021/12/19 13:16:58;;;;;;;;;;;;;;;;;;4879418;29;19911;-77
2021/12/19 13:19:24;;;;;;;;;;;;;;;;;;4878774;29;19975;-76
2021/12/19 13:21:50;;;;;;;;;;;;;;;;;;4879907;29;19922;-76
2021/12/19 13:24:16;;;;;;;;;;;;;;;;;;4879231;29;19915;-76
2021/12/19 13:26:42;;;;;;;;;;;;;;;;;;4879318;29;20002;-76
2021/12/19 13:29:07;;;;;;;;;;;;;;;;;;4871334;29;20424;-76
2021/12/19 13:31:33;;;;;;;;;;;;;;;;;;4869041;29;20010;-76
2021/12/19 13:33:59;;;;;;;;;;;;;;;;;;4879138;29;19908;-76
2021/12/19 13:36:25;;;;;;;;;;;;;;;;;;4880001;29;19919;-76
2021/12/19 13:38:53;;;;;;;;;;;;;;;;;;4879549;29;20257;-77
2021/12/19 13:41:19;;;;;;;;;;;;;;;;;;4879731;29;19963;-76
2021/12/19 13:43:45;;;;;;;;;;;;;;;;;;4880022;29;19912;-76
2021/12/19 13:46:12;;;;;;;;;;;;;;;;;;4879012;29;19911;-76
2021/12/19 13:48:38;;;;;;;;;;;;;;;;;;4878822;29;19920;-76
2021/12/19 13:51:04;;;;;;;;;;;;;;;;;;4862320;29;20365;-76
2021/12/19 13:53:30;;;;;;;;;;;;;;;;;;4876441;29;20416;-76
2021/12/19 13:55:56;;;;;;;;;;;;;;;;;;4844437;29;19908;-76
2021/12/19 13:58:22;;;;;;;;;;;;;;;;;;4871109;29;19912;-76
2021/12/19 14:00:49;;;;;;;;;;;;;;;;;;4879660;29;20264;-77
2021/12/19 14:03:15;;;;;;;;;;;;;;;;;;4872774;29;19912;-76
2021/12/19 14:05:41;;;;;;;;;;;;;;;;;;4879394;29;20353;-77
2021/12/19 14:08:07;;;;;;;;;;;;;;;;;;4878062;29;19968;-77
2021/12/19 14:10:33;;;;;;;;;;;;;;;;;;4879203;29;19914;-76
2021/12/19 14:15:28;;;;;;;;;;;;;;;;;;4879236;29;20360;-77
2021/12/19 14:17:53;;;;;;;;;;;;;;;;;;4878821;29;19915;-77
2021/12/19 14:20:19;;;;;;;;;;;;;;;;;;4878809;29;19908;-77
2021/12/19 14:22:48;;;;;;;;;;;;;;;;;;4879314;29;20280;-76
2021/12/19 14:25:14;;;;;;;;;;;;;;;;;;4878417;29;20435;-77
2021/12/19 14:27:39;;;;;;;;;;;;;;;;;;4879252;29;19943;-77
2021/12/19 14:30:05;;;;;;;;;;;;;;;;;;4862134;29;19915;-76
2021/12/19 14:32:34;;;;;;;;;;;;;;;;;;4874131;29;20272;-77
2021/12/19 14:35:00;;;;;;;;;;;;;;;;;;4865867;29;19919;-76
2021/12/19 14:37:26;;;;;;;;;;;;;;;;;;4882563;29;19956;-76
2021/12/19 14:39:52;;;;;;;;;;;;;;;;;;4883110;29;19911;-77
2021/12/19 14:42:19;;;;;;;;;;;;;;;;;;4882044;29;19930;-76
2021/12/19 14:44:45;;;;;;;;;;;;;;;;;;4881112;29;19912;-76
2021/12/19 14:47:11;;;;;;;;;;;;;;;;;;4878500;29;20349;-77
2021/12/19 14:49:37;;;;;;;;;;;;;;;;;;4882557;29;19932;-76
2021/12/19 14:52:03;;;;;;;;;;;;;;;;;;4882508;29;19964;-76
2021/12/19 14:54:28;;;;;;;;;;;;;;;;;;4881515;29;19959;-77
2021/12/19 14:56:57;;;;;;;;;;;;;;;;;;4882169;29;20372;-76
2021/12/19 14:59:27;;;;;;;;;;;;;;;;;;4879395;29;19971;-76
2021/12/19 15:01:52;;;;;;;;;;;;;;;;;;4863833;29;19908;-76
2021/12/19 15:04:19;;;;;;;;;;;;;;;;;;4863894;29;19911;-77
2021/12/19 15:06:46;;;;;;;;;;;;;;;;;;4864016;29;20387;-76
2021/12/19 15:09:13;;;;;;;;;;;;;;;;;;4879544;29;19975;-77
2021/12/19 15:11:39;;;;;;;;;;;;;;;;;;4870283;29;19918;-77
2021/12/19 15:14:05;;;;;;;;;;;;;;;;;;4881853;29;19998;-76
2021/12/19 15:16:34;;;;;;;;;;;;;;;;;;4881014;29;19914;-76
2021/12/19 15:19:00;;;;;;;;;;;;;;;;;;4881862;29;19918;-77
2021/12/19 15:21:26;;;;;;;;;;;;;;;;;;4881231;29;19911;-76
2021/12/19 15:23:53;;;;;;;;;;;;;;;;;;4881073;29;20392;-76
2021/12/19 15:26:18;;;;;;;;;;;;;;;;;;4881792;29;19908;-76
2021/12/19 15:28:46;;;;;;;;;;;;;;;;;;4881970;29;19939;-77
2021/12/19 15:31:12;;;;;;;;;;;;;;;;;;4881443;29;19907;-76
2021/12/19 15:33:39;;;;;;;;;;;;;;;;;;4871779;29;19969;-76
2021/12/19 15:36:05;;;;;;;;;;;;;;;;;;4882070;29;19912;-76
2021/12/19 15:38:31;;;;;;;;;;;;;;;;;;4881503;29;19919;-76
2021/12/19 15:40:57;;;;;;;;;;;;;;;;;;4875856;29;20280;-76
2021/12/19 15:43:23;;;;;;;;;;;;;;;;;;4877482;29;19928;-76
2021/12/19 15:45:49;;;;;;;;;;;;;;;;;;4880966;29;19912;-76
2021/12/19 15:48:15;;;;;;;;;;;;;;;;;;4879937;29;20380;-77
2021/12/19 15:50:41;;;;;;;;;;;;;;;;;;4866920;29;20253;-76
2021/12/19 15:53:07;;;;;;;;;;;;;;;;;;4855665;29;19908;-75
2021/12/19 15:55:33;;;;;;;;;;;;;;;;;;4872090;29;20246;-75
2021/12/19 15:57:59;;;;;;;;;;;;;;;;;;4872047;29;19908;-75
2021/12/19 16:00:25;;;;;;;;;;;;;;;;;;4872115;29;19918;-76
2021/12/19 16:02:51;;;;;;;;;;;;;;;;;;4871455;29;19912;-75
2021/12/19 16:05:17;;;;;;;;;;;;;;;;;;4856606;29;19915;-75
2021/12/19 16:07:43;;;;;;;;;;;;;;;;;;4873652;29;20310;-75
2021/12/19 16:10:09;;;;;;;;;;;;;;;;;;4872683;29;20361;-78
2021/12/19 16:12:34;;;;;;;;;;;;;;;;;;4869474;29;19960;-76
2021/12/19 16:15:00;;;;;;;;;;;;;;;;;;4859919;29;19908;-78
2021/12/19 16:17:26;;;;;;;;;;;;;;;;;;4874287;29;21037;-76
2021/12/19 16:19:52;;;;;;;;;;;;;;;;;;4877722;29;19944;-76
2021/12/19 16:22:18;;;;;;;;;;;;;;;;;;4878466;29;19915;-77
2021/12/19 16:24:44;;;;;;;;;;;;;;;;;;4879876;29;20355;-77
2021/12/19 16:27:10;;;;;;;;;;;;;;;;;;4880237;29;19914;-77
2021/12/19 16:29:36;;;;;;;;;;;;;;;;;;4879893;29;20265;-77
2021/12/19 16:32:02;;;;;;;;;;;;;;;;;;4879760;29;19908;-77
2021/12/19 16:34:28;;;;;;;;;;;;;;;;;;4879880;29;19956;-77
2021/12/19 16:36:54;;;;;;;;;;;;;;;;;;4879843;29;19907;-77
2021/12/19 16:39:21;;;;;;;;;;;;;;;;;;4879963;29;20284;-76
2021/12/19 16:42:00;;;;;;;;;;;;;;;;;;4879783;29;19907;-77
2021/12/19 16:44:26;;;;;;;;;;;;;;;;;;4880320;29;19908;-75
2021/12/19 16:46:53;;;;;;;;;;;;;;;;;;4879904;29;19908;-75
2021/12/19 16:49:19;;;;;;;;;;;;;;;;;;4862674;29;19943;-76
2021/12/19 16:51:45;;;;;;;;;;;;;;;;;;4879645;29;20380;-76
2021/12/19 16:54:11;;;;;;;;;;;;;;;;;;4879384;29;19915;-77
2021/12/19 16:56:37;;;;;;;;;;;;;;;;;;4878966;29;20192;-76
2021/12/19 16:59:03;;;;;;;;;;;;;;;;;;4879264;29;19967;-76
2021/12/19 17:01:29;;;;;;;;;;;;;;;;;;4879760;29;19907;-76
2021/12/19 17:03:55;;;;;;;;;;;;;;;;;;4879270;29;19908;-76
2021/12/19 17:06:21;;;;;;;;;;;;;;;;;;4879641;29;19908;-76
2021/12/19 17:08:47;;;;;;;;;;;;;;;;;;4879137;29;19912;-76
2021/12/19 17:11:14;;;;;;;;;;;;;;;;;;4879088;29;20284;-76
2021/12/19 17:13:53;;;;;;;;;;;;;;;;;;4879198;29;19994;-76
2021/12/19 17:16:20;;;;;;;;;;;;;;;;;;4879760;29;19915;-77
2021/12/19 17:18:48;;;;;;;;;;;;;;;;;;4879072;29;19918;-76
2021/12/19 17:21:14;;;;;;;;;;;;;;;;;;4879080;29;19915;-76
2021/12/19 17:23:39;;;;;;;;;;;;;;;;;;4879048;29;19904;-76
2021/12/19 17:26:05;;;;;;;;;;;;;;;;;;4878636;29;20419;-76
2021/12/19 17:28:31;;;;;;;;;;;;;;;;;;4879198;29;19951;-76
2021/12/19 17:30:58;;;;;;;;;;;;;;;;;;4862374;29;19907;-76
2021/12/19 17:33:24;;;;;;;;;;;;;;;;;;4878973;29;19958;-76
2021/12/19 17:35:51;;;;;;;;;;;;;;;;;;4878949;29;19935;-76
2021/12/19 17:38:17;;;;;;;;;;;;;;;;;;4878963;29;19911;-76
2021/12/19 17:40:52;;;;;;;;;;;;;;;;;;4878616;29;19914;-76
2021/12/19 17:43:18;;;;;;;;;;;;;;;;;;4878723;29;19907;-76
2021/12/19 17:45:44;;;;;;;;;;;;;;;;;;4878887;29;19912;-76
2021/12/19 17:48:10;;;;;;;;;;;;;;;;;;4878793;29;19920;-76
2021/12/19 17:50:36;;;;;;;;;;;;;;;;;;4878821;29;19915;-76
2021/12/19 17:53:02;;;;;;;;;;;;;;;;;;4878613;29;19908;-76
2021/12/19 17:55:28;;;;;;;;;;;;;;;;;;4878139;29;19930;-76
2021/12/19 17:57:54;;;;;;;;;;;;;;;;;;4878432;29;20403;-77
2021/12/19 18:00:20;;;;;;;;;;;;;;;;;;4878878;29;19912;-75
2021/12/19 18:02:46;;;;;;;;;;;;;;;;;;4878504;29;19915;-75
2021/12/19 18:05:15;;;;;;;;;;;;;;;;;;4861321;29;20372;-75
2021/12/19 18:07:41;;;;;;;;;;;;;;;;;;4878648;29;19919;-75
2021/12/19 18:10:08;;;;;;;;;;;;;;;;;;4877663;29;19967;-75
2021/12/19 18:12:33;;;;;;;;;;;;;;;;;;4878378;29;19911;-76
2021/12/19 18:14:59;;;;;;;;;;;;;;;;;;4878305;29;19995;-78
2021/12/19 18:17:25;;;;;;;;;;;;;;;;;;4861837;29;19908;-76
2021/12/19 18:19:51;;;;;;;;;;;;;;;;;;4878330;29;19912;-76
2021/12/19 18:22:17;;;;;;;;;;;;;;;;;;4878716;29;19998;-77
2021/12/19 18:24:43;;;;;;;;;;;;;;;;;;4878218;29;19911;-84
2021/12/19 18:27:09;;;;;;;;;;;;;;;;;;4861580;29;19908;-76
2021/12/19 18:29:37;;;;;;;;;;;;;;;;;;4878463;29;19907;-77
2021/12/19 18:32:03;;;;;;;;;;;;;;;;;;4866911;29;19930;-81